Auburn Township, Ohio
Current Conditions -  °F | °C
As of 7:38 PM on Saturday 25 Oct 2014 (Local Time) from KPOV Reporting Station
Clear Clear  
Wind Chill: 63°   Ceiling: Unl
Heat Index: 63°   Visibility: 10mi
Dew Point: 36°   Wind: 14mph
Humidity: 36%   Direction: 270°W
Pressure: 29.76"   Gusts: 24mph
Location:  41.2966°N, 81.2269°W
Report Text: KPOV 252338Z AUTO 27012G21KT 10SM CLR 17/02 A2976 RMK AO2 T01720020
Loading
Personal Weather Stations






























Interactive Weather Map New forecast layout! Learn more

10-Day Weather Forecast

Advertisements
Track Severe Weather on mobile